Time;durP1;ratioP1;P1;durP2;ratioP2;P2;SDS_P1;SDS_P2;PMS_P1;PMS_P2;Temp;Humidity;BMP_temperature;BMP_pressure;BME280_temperature;BME280_humidity;BME280_pressure;Samples;Min_cycle;Max_cycle;Signal;HPM_P1;HPM_P2
2022/09/23 00:01:01;;;;;;;19.40;17.30;;;;;20.60;100734.00;;;;2071288;28;20245;-54
2022/09/23 00:02:01;;;;;;;18.70;16.73;;;;;20.60;100733.00;;;;2070093;28;20233;-52
2022/09/23 00:03:02;;;;;;;19.27;17.13;;;;;20.60;100737.00;;;;2070338;28;20299;-52
2022/09/23 00:04:02;;;;;;;20.47;17.30;;;;;20.60;100734.00;;;;2071270;28;20264;-53
2022/09/23 00:05:02;;;;;;;18.60;16.60;;;;;20.60;100732.00;;;;2079259;28;20213;-53
2022/09/23 00:06:04;;;;;;;19.17;15.97;;;;;20.60;100729.00;;;;2079266;28;20228;-53
2022/09/23 00:07:05;;;;;;;21.77;18.48;;;;;20.60;100738.00;;;;2078872;28;20224;-53
2022/09/23 00:08:06;;;;;;;19.43;16.80;;;;;20.60;100726.00;;;;2077259;28;20210;-53
2022/09/23 00:09:06;;;;;;;18.80;16.30;;;;;20.60;100734.00;;;;2078527;28;20232;-53
2022/09/23 00:10:07;;;;;;;16.73;15.03;;;;;20.60;100730.00;;;;2078391;28;20458;-53
2022/09/23 00:11:15;;;;;;;17.40;14.80;;;;;20.60;100735.00;;;;2078952;28;20355;-53
2022/09/23 00:12:16;;;;;;;17.45;15.55;;;;;20.60;100733.00;;;;2078194;28;20209;-54
2022/09/23 00:13:17;;;;;;;16.98;14.20;;;;;20.60;100728.00;;;;2078469;28;20641;-53
2022/09/23 00:14:17;;;;;;;16.27;14.53;;;;;20.60;100737.00;;;;2079313;28;20213;-54
2022/09/23 00:15:18;;;;;;;15.67;14.03;;;;;20.60;100729.00;;;;2079406;28;20209;-53
2022/09/23 00:16:20;;;;;;;16.20;14.33;;;;;20.60;100737.00;;;;2079126;28;20216;-53
2022/09/23 00:17:22;;;;;;;15.90;14.20;;;;;20.60;100744.00;;;;2077472;28;20228;-53
2022/09/23 00:18:22;;;;;;;16.85;14.77;;;;;20.60;100733.00;;;;2078422;28;20772;-53
2022/09/23 00:19:23;;;;;;;16.40;14.60;;;;;20.60;100726.00;;;;2078362;28;20224;-54
2022/09/23 00:20:23;;;;;;;16.03;14.27;;;;;20.60;100735.00;;;;2079020;28;20213;-54
2022/09/23 00:21:24;;;;;;;17.53;15.43;;;;;20.60;100735.00;;;;2078959;28;20271;-53
2022/09/23 00:22:24;;;;;;;15.10;13.40;;;;;20.60;100729.00;;;;2078933;28;20210;-52
2022/09/23 00:23:24;;;;;;;17.23;14.50;;;;;20.60;100729.00;;;;2078722;28;20323;-52
2022/09/23 00:24:25;;;;;;;16.20;13.60;;;;;20.60;100724.00;;;;2078918;28;20229;-52
2022/09/23 00:25:26;;;;;;;14.80;12.80;;;;;20.50;100720.00;;;;2077673;28;20209;-53
2022/09/23 00:26:26;;;;;;;14.05;12.52;;;;;20.50;100721.00;;;;2078900;28;20213;-53
2022/09/23 00:27:27;;;;;;;14.87;13.30;;;;;20.50;100726.00;;;;2077939;28;20228;-53
2022/09/23 00:28:28;;;;;;;14.27;12.70;;;;;20.50;100717.00;;;;2079192;28;20232;-53
2022/09/23 00:29:30;;;;;;;15.40;13.02;;;;;20.50;100721.00;;;;2079226;28;20245;-53
2022/09/23 00:30:31;;;;;;;13.65;12.25;;;;;20.50;100719.00;;;;2079131;28;20213;-53
2022/09/23 00:31:31;;;;;;;14.07;12.03;;;;;20.50;100718.00;;;;2079031;28;20388;-53
2022/09/23 00:32:32;;;;;;;14.77;12.73;;;;;20.50;100731.00;;;;2079036;28;21345;-53
2022/09/23 00:33:32;;;;;;;14.17;11.27;;;;;20.50;100714.00;;;;2073359;28;20224;-52
2022/09/23 00:34:33;;;;;;;12.30;11.10;;;;;20.50;100722.00;;;;2074085;28;20571;-52
2022/09/23 00:35:33;;;;;;;14.30;12.37;;;;;20.50;100721.00;;;;2078715;28;20232;-54
2022/09/23 00:36:34;;;;;;;13.43;12.10;;;;;20.50;100728.00;;;;2072102;28;20217;-53
2022/09/23 00:37:34;;;;;;;12.57;11.00;;;;;20.50;100721.00;;;;2077930;28;20332;-53
2022/09/23 00:38:34;;;;;;;12.43;10.43;;;;;20.50;100723.00;;;;2078839;28;20952;-53
2022/09/23 00:39:35;;;;;;;12.03;10.83;;;;;20.50;100720.00;;;;2078590;28;20770;-53
2022/09/23 00:40:40;;;;;;;11.50;10.10;;;;;20.50;100723.00;;;;2078841;28;20764;-53
2022/09/23 00:41:41;;;;;;;12.32;11.02;;;;;20.50;100720.00;;;;2077778;28;20227;-53
2022/09/23 00:42:46;;;;;;;13.50;11.10;;;;;20.50;100712.00;;;;2063880;28;20925;-52
2022/09/23 00:43:51;;;;;;;12.40;10.05;;;;;20.50;100717.00;;;;2075149;28;20694;-53
2022/09/23 00:44:53;;;;;;;10.63;9.52;;;;;20.50;100723.00;;;;2079012;28;20214;-52
2022/09/23 00:45:53;;;;;;;10.75;9.65;;;;;20.50;100705.00;;;;2078755;28;20213;-54
2022/09/23 00:46:54;;;;;;;13.67;10.37;;;;;20.50;100715.00;;;;2074498;28;20214;-52
2022/09/23 00:47:56;;;;;;;12.37;10.20;;;;;20.50;100710.00;;;;2069890;28;20221;-54
2022/09/23 00:48:59;;;;;;;12.07;9.68;;;;;20.50;100707.00;;;;2070273;28;20226;-52
2022/09/23 00:50:29;;;;;;;10.63;9.63;;;;;20.50;100707.00;;;;2062485;28;20238;-52
2022/09/23 00:51:33;;;;;;;10.70;9.57;;;;;20.50;100711.00;;;;2070934;28;20233;-53
2022/09/23 00:52:33;;;;;;;11.38;9.68;;;;;20.50;100711.00;;;;2072317;28;20214;-54
2022/09/23 00:53:33;;;;;;;9.50;8.53;;;;;20.40;100709.00;;;;2078102;28;20336;-53
2022/09/23 00:54:34;;;;;;;10.93;9.33;;;;;20.50;100707.00;;;;2078136;28;20251;-54
2022/09/23 00:56:05;;;;;;;12.00;9.77;;;;;20.50;100705.00;;;;2078306;28;20225;-52
2022/09/23 00:57:06;;;;;;;10.43;9.32;;;;;20.40;100712.00;;;;2077046;28;20225;-52
2022/09/23 00:58:08;;;;;;;10.57;9.47;;;;;20.40;100706.00;;;;2061322;28;20637;-52
2022/09/23 00:59:08;;;;;;;9.15;8.25;;;;;20.50;100708.00;;;;2070303;28;20241;-52
2022/09/23 01:00:09;;;;;;;10.33;9.30;;;;;20.40;100704.00;;;;2070170;28;20214;-52
2022/09/23 01:01:10;;;;;;;9.93;8.93;;;;;20.50;100678.00;;;;2074932;28;20218;-53
2022/09/23 01:02:11;;;;;;;8.90;8.00;;;;;20.50;100709.00;;;;2069715;28;20449;-53
2022/09/23 01:03:12;;;;;;;9.20;8.27;;;;;20.40;100694.00;;;;2067697;28;20217;-52
2022/09/23 01:04:13;;;;;;;9.30;8.40;;;;;20.40;100708.00;;;;2078064;28;20288;-53
2022/09/23 01:05:14;;;;;;;9.27;8.32;;;;;20.40;100705.00;;;;2074739;28;20293;-54
2022/09/23 01:06:14;;;;;;;8.93;8.03;;;;;20.40;100702.00;;;;2062107;28;20233;-54
2022/09/23 01:07:14;;;;;;;8.97;8.07;;;;;20.40;100710.00;;;;2071355;28;20222;-53
2022/09/23 01:08:15;;;;;;;8.33;7.50;;;;;20.40;100711.00;;;;2078260;28;20889;-53
2022/09/23 01:09:15;;;;;;;8.03;7.23;;;;;20.40;100700.00;;;;2069558;28;20725;-54
2022/09/23 01:10:16;;;;;;;9.10;7.40;;;;;20.40;100699.00;;;;2070111;28;20210;-53
2022/09/23 01:11:34;;;;;;;8.07;7.27;;;;;20.40;100697.00;;;;2078275;28;20217;-54
2022/09/23 01:12:50;;;;;;;8.50;7.70;;;;;20.40;100700.00;;;;2078347;28;20228;-53
2022/09/23 01:14:16;;;;;;;8.38;6.93;;;;;20.50;100707.00;;;;2077957;28;20228;-53
2022/09/23 01:15:27;;;;;;;8.70;7.53;;;;;20.40;100691.00;;;;2073058;28;20297;-53
2022/09/23 01:16:38;;;;;;;7.90;7.10;;;;;20.40;100695.00;;;;2070822;28;20209;-53
2022/09/23 01:17:38;;;;;;;8.82;7.93;;;;;20.40;100699.00;;;;2068163;28;20677;-52
2022/09/23 01:19:04;;;;;;;8.20;7.00;;;;;20.40;100691.00;;;;2077984;28;20214;-52
2022/09/23 01:20:07;;;;;;;8.63;7.72;;;;;20.40;100701.00;;;;2069883;28;21709;-53
2022/09/23 01:21:23;;;;;;;7.53;6.72;;;;;20.40;100699.00;;;;2064359;28;20217;-52
2022/09/23 01:22:38;;;;;;;7.88;7.00;;;;;20.40;100697.00;;;;2070288;28;20305;-53
2022/09/23 01:24:16;;;;;;;8.60;7.15;;;;;20.40;100690.00;;;;2076271;28;20217;-53
2022/09/23 01:25:31;;;;;;;6.68;5.97;;;;;20.40;100694.00;;;;2070289;28;20222;-54
2022/09/23 01:26:44;;;;;;;8.77;6.90;;;;;20.40;100691.00;;;;2066862;28;20455;-52
2022/09/23 01:28:04;;;;;;;8.07;6.30;;;;;20.40;100677.00;;;;2071086;28;20230;-52
2022/09/23 01:29:32;;;;;;;8.00;6.65;;;;;20.30;100688.00;;;;2069661;28;20228;-52
2022/09/23 01:30:38;;;;;;;6.65;5.97;;;;;20.40;100686.00;;;;2071010;28;20263;-52
2022/09/23 01:31:50;;;;;;;8.90;6.40;;;;;20.40;100690.00;;;;2073085;28;20209;-52
2022/09/23 01:33:03;;;;;;;7.60;6.55;;;;;20.40;100686.00;;;;2079560;28;20206;-52
2022/09/23 01:34:29;;;;;;;7.50;5.97;;;;;20.40;100683.00;;;;2080285;28;20649;-53
2022/09/23 01:35:51;;;;;;;7.57;6.60;;;;;20.40;100689.00;;;;2063763;28;20222;-52
2022/09/23 01:37:27;;;;;;;7.05;6.35;;;;;20.40;100687.00;;;;2073060;28;20246;-53
2022/09/23 01:39:00;;;;;;;7.43;6.00;;;;;20.30;100683.00;;;;2072052;28;20256;-53
2022/09/23 01:40:11;;;;;;;6.85;6.20;;;;;20.40;100684.00;;;;2072121;28;20289;-53
2022/09/23 01:41:26;;;;;;;9.25;6.38;;;;;20.40;100684.00;;;;2072591;28;20268;-52
2022/09/23 01:42:39;;;;;;;6.97;5.82;;;;;20.40;100703.00;;;;2076590;28;20213;-52
2022/09/23 01:43:45;;;;;;;6.82;5.60;;;;;20.30;100682.00;;;;2067589;28;20658;-52
2022/09/23 01:44:52;;;;;;;6.22;5.25;;;;;20.30;100687.00;;;;2072183;28;20298;-52
2022/09/23 01:45:55;;;;;;;6.07;5.32;;;;;20.40;100678.00;;;;2062769;28;20219;-53
2022/09/23 01:47:22;;;;;;;5.10;4.60;;;;;20.30;100683.00;;;;2071377;28;20221;-52
2022/09/23 01:48:28;;;;;;;5.75;5.00;;;;;20.30;100677.00;;;;2071182;28;20224;-53
2022/09/23 01:49:35;;;;;;;5.80;4.97;;;;;20.30;100679.00;;;;2078364;28;20682;-54
2022/09/23 01:50:55;;;;;;;5.97;5.38;;;;;20.30;100674.00;;;;2062614;28;20215;-53
2022/09/23 01:52:17;;;;;;;5.40;4.80;;;;;20.30;100680.00;;;;2053808;28;20239;-53
2022/09/23 01:53:20;;;;;;;6.65;5.07;;;;;20.30;100668.00;;;;2067416;28;20217;-53
2022/09/23 01:54:21;;;;;;;5.20;4.70;;;;;20.30;100676.00;;;;2069874;28;20218;-52
2022/09/23 01:55:27;;;;;;;6.17;5.57;;;;;20.40;100672.00;;;;2070907;28;20214;-53
2022/09/23 01:56:33;;;;;;;6.82;4.65;;;;;20.20;100681.00;;;;2071115;28;20288;-53
2022/09/23 01:57:43;;;;;;;5.13;4.63;;;;;20.30;100683.00;;;;2055484;28;20278;-52
2022/09/23 01:58:49;;;;;;;5.72;4.72;;;;;20.30;100677.00;;;;2070616;28;20218;-53
2022/09/23 01:59:59;;;;;;;5.28;4.70;;;;;20.30;100680.00;;;;2074717;28;20312;-52
2022/09/23 02:01:05;;;;;;;5.18;4.28;;;;;20.30;100678.00;;;;2070460;28;20245;-54
2022/09/23 02:02:14;;;;;;;6.55;4.85;;;;;20.30;100681.00;;;;2064698;28;20789;-54
2022/09/23 02:03:25;;;;;;;4.63;4.22;;;;;20.30;100680.00;;;;2071902;28;20245;-54
2022/09/23 02:04:50;;;;;;;5.22;4.63;;;;;20.30;100677.00;;;;2076853;28;20232;-53
2022/09/23 02:05:55;;;;;;;5.80;5.00;;;;;20.30;100677.00;;;;2072776;28;20297;-53
2022/09/23 02:06:59;;;;;;;5.15;4.18;;;;;20.30;100673.00;;;;2078197;28;20201;-54
2022/09/23 02:08:02;;;;;;;4.82;4.43;;;;;20.30;100677.00;;;;2077792;28;20256;-53
2022/09/23 02:09:06;;;;;;;4.70;4.00;;;;;20.30;100671.00;;;;2071498;28;20932;-53
2022/09/23 02:10:11;;;;;;;5.25;4.63;;;;;20.30;100678.00;;;;2071176;28;20333;-53
2022/09/23 02:11:14;;;;;;;6.18;4.18;;;;;20.30;100674.00;;;;2071561;28;20206;-53
2022/09/23 02:12:16;;;;;;;4.80;4.28;;;;;20.30;100672.00;;;;2070642;28;20641;-53
2022/09/23 02:13:27;;;;;;;4.88;4.05;;;;;20.30;100666.00;;;;2079143;28;20220;-53
2022/09/23 02:14:37;;;;;;;4.20;3.80;;;;;20.30;100651.00;;;;2070012;28;20222;-54
2022/09/23 02:15:40;;;;;;;4.60;3.80;;;;;20.30;100673.00;;;;2067933;28;20615;-54
2022/09/23 02:16:49;;;;;;;5.20;4.25;;;;;20.30;100665.00;;;;2063040;28;20226;-53
2022/09/23 02:18:00;;;;;;;5.15;4.18;;;;;20.30;100655.00;;;;2067690;28;20214;-53
2022/09/23 02:19:20;;;;;;;4.10;3.70;;;;;20.30;100632.00;;;;2071963;28;20225;-53
2022/09/23 02:20:28;;;;;;;4.60;4.15;;;;;20.30;100666.00;;;;2070966;28;20233;-52
2022/09/23 02:21:33;;;;;;;4.72;3.60;;;;;20.30;100666.00;;;;2072616;28;20264;-52
2022/09/23 02:22:41;;;;;;;4.35;3.95;;;;;20.30;100662.00;;;;2078270;28;20213;-52
2022/09/23 02:23:43;;;;;;;4.57;3.92;;;;;20.30;100654.00;;;;2071485;28;20753;-52
2022/09/23 02:24:43;;;;;;;5.18;3.35;;;;;20.30;100666.00;;;;2063025;28;20310;-52
2022/09/23 02:25:54;;;;;;;3.50;3.20;;;;;20.30;100655.00;;;;2063155;28;20223;-52
2022/09/23 02:26:59;;;;;;;5.28;3.60;;;;;20.30;100654.00;;;;2069710;28;20233;-52
2022/09/23 02:28:23;;;;;;;4.63;4.00;;;;;20.30;100655.00;;;;2070718;28;20218;-52
2022/09/23 02:29:57;;;;;;;3.75;3.30;;;;;20.30;100627.00;;;;2073461;28;20275;-52
2022/09/23 02:31:40;;;;;;;3.85;3.45;;;;;20.30;100660.00;;;;2053914;28;20293;-54
2022/09/23 02:32:53;;;;;;;4.10;3.80;;;;;20.30;100645.00;;;;2060386;28;20213;-53
2022/09/23 02:33:56;;;;;;;4.50;3.90;;;;;20.30;100646.00;;;;2071766;28;20570;-52
2022/09/23 02:34:59;;;;;;;4.72;3.30;;;;;20.30;100648.00;;;;2067248;28;20222;-53
2022/09/23 02:36:24;;;;;;;4.25;3.83;;;;;20.30;100653.00;;;;2071288;28;20686;-53
2022/09/23 02:37:47;;;;;;;3.95;3.55;;;;;20.30;100649.00;;;;2075469;28;20272;-52
2022/09/23 02:38:52;;;;;;;4.25;3.40;;;;;20.30;100643.00;;;;2079543;28;20217;-52
2022/09/23 02:40:13;;;;;;;3.53;3.17;;;;;20.30;100637.00;;;;2071107;28;20225;-52
2022/09/23 02:41:16;;;;;;;3.78;3.30;;;;;20.20;100637.00;;;;2077068;28;20315;-53
2022/09/23 02:42:27;;;;;;;3.80;3.35;;;;;20.20;100616.00;;;;2064526;28;20340;-52
2022/09/23 02:43:38;;;;;;;3.08;2.88;;;;;20.20;100640.00;;;;2064270;28;20207;-52
2022/09/23 02:44:39;;;;;;;3.65;3.25;;;;;20.20;100641.00;;;;2071356;28;20214;-52
2022/09/23 02:45:39;;;;;;;3.55;3.25;;;;;20.20;100639.00;;;;2071144;28;20206;-53
2022/09/23 02:46:42;;;;;;;4.27;3.47;;;;;20.20;100646.00;;;;2062326;28;20284;-53
2022/09/23 02:47:43;;;;;;;3.90;3.50;;;;;20.30;100617.00;;;;2062118;28;20223;-52
2022/09/23 02:48:52;;;;;;;3.80;3.38;;;;;20.20;100633.00;;;;2062940;28;20603;-52
2022/09/23 02:49:55;;;;;;;3.75;3.28;;;;;20.20;100640.00;;;;2057289;28;20222;-52
2022/09/23 02:50:55;;;;;;;3.08;2.78;;;;;20.20;100631.00;;;;2062863;28;20682;-52
2022/09/23 02:51:56;;;;;;;4.00;3.10;;;;;20.20;100638.00;;;;2062724;28;20293;-52
2022/09/23 02:52:57;;;;;;;4.77;2.83;;;;;20.20;100628.00;;;;2065924;28;20237;-52
2022/09/23 02:53:57;;;;;;;3.43;2.97;;;;;20.20;100630.00;;;;2070066;28;20229;-53
2022/09/23 02:54:59;;;;;;;3.57;3.10;;;;;20.20;100635.00;;;;2071150;28;20492;-52
2022/09/23 02:56:00;;;;;;;3.10;2.80;;;;;20.20;100629.00;;;;2069457;28;20590;-54
2022/09/23 02:57:02;;;;;;;4.60;3.00;;;;;20.20;100633.00;;;;2065953;28;20611;-53
2022/09/23 02:58:02;;;;;;;4.90;3.15;;;;;20.20;100623.00;;;;2070744;28;20214;-53
2022/09/23 02:59:02;;;;;;;3.33;3.03;;;;;20.20;100631.00;;;;2070215;28;20236;-53
2022/09/23 03:00:04;;;;;;;2.90;2.60;;;;;20.20;100623.00;;;;2071108;28;20215;-53
2022/09/23 03:01:22;;;;;;;2.90;2.60;;;;;20.20;100624.00;;;;2062595;28;20225;-53
2022/09/23 03:02:51;;;;;;;3.50;3.20;;;;;20.20;100629.00;;;;2059239;28;20216;-52
2022/09/23 03:04:16;;;;;;;2.88;2.58;;;;;20.20;100632.00;;;;2059421;28;20225;-52
2022/09/23 03:05:18;;;;;;;3.65;3.00;;;;;20.20;100626.00;;;;2064365;28;20214;-52
2022/09/23 03:06:28;;;;;;;3.20;2.80;;;;;20.20;100627.00;;;;2071215;28;20206;-53
2022/09/23 03:07:37;;;;;;;3.20;2.65;;;;;20.20;100617.00;;;;2075057;28;20681;-52
2022/09/23 03:08:57;;;;;;;2.72;2.53;;;;;20.20;100627.00;;;;2070278;28;20213;-52
2022/09/23 03:10:09;;;;;;;3.55;2.78;;;;;20.20;100623.00;;;;2068053;28;20214;-52
2022/09/23 03:11:10;;;;;;;3.22;2.50;;;;;20.20;100618.00;;;;2073284;28;20210;-53
2022/09/23 03:12:40;;;;;;;3.20;2.72;;;;;20.20;100618.00;;;;2071015;28;20210;-52
2022/09/23 03:13:51;;;;;;;2.97;2.60;;;;;20.20;100611.00;;;;2074702;28;20757;-52
2022/09/23 03:14:57;;;;;;;3.13;2.55;;;;;20.20;100615.00;;;;2072510;28;20666;-52
2022/09/23 03:16:28;;;;;;;2.78;2.55;;;;;20.20;100615.00;;;;2074225;28;20260;-52
2022/09/23 03:18:15;;;;;;;2.35;2.08;;;;;20.20;100613.00;;;;2076227;28;20229;-52
2022/09/23 03:19:49;;;;;;;2.38;2.15;;;;;20.20;100613.00;;;;2076393;28;20221;-52
2022/09/23 03:20:57;;;;;;;2.55;2.35;;;;;20.20;100608.00;;;;2077905;28;20251;-52
2022/09/23 03:22:04;;;;;;;2.90;2.28;;;;;20.20;100619.00;;;;2073527;28;20214;-52
2022/09/23 03:23:08;;;;;;;2.92;2.63;;;;;20.20;100613.00;;;;2070593;28;20222;-52
2022/09/23 03:24:08;;;;;;;3.75;2.47;;;;;20.20;100617.00;;;;2070898;28;20574;-52
2022/09/23 03:25:14;;;;;;;3.60;2.10;;;;;20.20;100619.00;;;;2070055;28;20221;-52
2022/09/23 03:26:21;;;;;;;2.80;2.33;;;;;20.20;100614.00;;;;2070916;28;20670;-53
2022/09/23 03:27:22;;;;;;;2.47;2.28;;;;;20.20;100579.00;;;;2071457;28;20718;-52
2022/09/23 03:28:24;;;;;;;3.28;2.33;;;;;20.10;100615.00;;;;2062081;28;20222;-52
2022/09/23 03:29:24;;;;;;;3.20;2.33;;;;;20.20;100619.00;;;;2054343;28;20247;-52
2022/09/23 03:30:25;;;;;;;2.27;2.07;;;;;20.20;100614.00;;;;2062215;28;20219;-52
2022/09/23 03:31:25;;;;;;;2.70;2.20;;;;;20.20;100590.00;;;;2068359;28;20224;-52
2022/09/23 03:32:26;;;;;;;1.97;1.77;;;;;20.20;100610.00;;;;2070043;28;20210;-52
2022/09/23 03:33:27;;;;;;;2.75;1.80;;;;;20.20;100614.00;;;;2068621;28;20718;-52
2022/09/23 03:34:28;;;;;;;2.90;2.40;;;;;20.20;100611.00;;;;2078079;28;20304;-52
2022/09/23 03:35:29;;;;;;;2.15;1.92;;;;;20.20;100617.00;;;;2078119;28;20217;-52
2022/09/23 03:36:50;;;;;;;2.80;2.20;;;;;20.20;100614.00;;;;2070235;28;20211;-52
2022/09/23 03:38:26;;;;;;;2.28;2.08;;;;;20.20;100618.00;;;;2063561;28;20230;-52
2022/09/23 03:39:45;;;;;;;2.10;1.90;;;;;20.20;100580.00;;;;2060195;28;20696;-52
2022/09/23 03:40:49;;;;;;;2.20;2.00;;;;;20.20;100614.00;;;;2052962;28;20266;-52
2022/09/23 03:41:49;;;;;;;3.78;2.42;;;;;20.20;100608.00;;;;2057604;28;20226;-52
2022/09/23 03:42:50;;;;;;;2.30;2.00;;;;;20.20;100607.00;;;;2069346;28;20210;-52
2022/09/23 03:43:52;;;;;;;2.63;2.37;;;;;20.20;100608.00;;;;2070002;28;20318;-52
2022/09/23 03:44:53;;;;;;;2.30;2.00;;;;;20.20;100607.00;;;;2070693;28;20234;-52
2022/09/23 03:45:56;;;;;;;2.92;2.20;;;;;20.10;100609.00;;;;2060606;28;20300;-52
2022/09/23 03:47:01;;;;;;;2.22;1.90;;;;;20.10;100603.00;;;;2070613;28;20213;-52
2022/09/23 03:48:01;;;;;;;3.22;2.03;;;;;20.10;100609.00;;;;2077139;28;20326;-52
2022/09/23 03:49:13;;;;;;;2.40;2.20;;;;;20.20;100600.00;;;;2077766;28;20216;-52
2022/09/23 03:50:13;;;;;;;2.08;1.88;;;;;20.00;100609.00;;;;2078365;28;20685;-53
2022/09/23 03:51:20;;;;;;;2.23;1.90;;;;;20.10;100608.00;;;;2078797;28;20225;-53
2022/09/23 03:52:22;;;;;;;1.85;1.73;;;;;20.10;100603.00;;;;2079345;28;20692;-52
2022/09/23 03:53:22;;;;;;;2.25;2.05;;;;;20.10;100610.00;;;;2079122;28;20415;-52
2022/09/23 03:54:23;;;;;;;2.17;1.97;;;;;20.10;100630.00;;;;2079407;28;20225;-53
2022/09/23 03:55:23;;;;;;;2.30;1.93;;;;;20.10;100607.00;;;;2079365;28;20697;-52
2022/09/23 03:56:23;;;;;;;2.63;2.20;;;;;20.10;100604.00;;;;2079183;28;20712;-52
2022/09/23 03:57:24;;;;;;;3.37;2.10;;;;;20.10;100608.00;;;;2078481;28;20702;-52
2022/09/23 03:58:24;;;;;;;2.10;1.60;;;;;20.10;100608.00;;;;2078734;28;20217;-52
2022/09/23 03:59:25;;;;;;;2.70;2.20;;;;;20.10;100611.00;;;;2078667;28;20456;-52
2022/09/23 04:00:26;;;;;;;2.58;1.90;;;;;20.10;100604.00;;;;2079359;28;20217;-52
2022/09/23 04:01:27;;;;;;;1.80;1.70;;;;;20.10;100609.00;;;;2079340;28;20742;-52
2022/09/23 04:02:27;;;;;;;2.00;1.80;;;;;20.10;100605.00;;;;2079230;28;20216;-54
2022/09/23 04:03:28;;;;;;;2.50;1.90;;;;;20.10;100606.00;;;;2078979;28;20218;-52
2022/09/23 04:04:28;;;;;;;2.13;1.93;;;;;20.10;100595.00;;;;2079184;28;20562;-52
2022/09/23 04:05:29;;;;;;;2.10;1.67;;;;;20.10;100601.00;;;;2078480;28;20217;-52
2022/09/23 04:06:29;;;;;;;1.80;1.70;;;;;20.10;100601.00;;;;2077975;28;20225;-52
2022/09/23 04:07:29;;;;;;;2.07;1.80;;;;;20.10;100599.00;;;;2077790;28;20217;-52
2022/09/23 04:08:30;;;;;;;2.10;1.90;;;;;20.10;100600.00;;;;2079213;28;20271;-52
2022/09/23 04:09:30;;;;;;;2.40;2.03;;;;;20.10;100597.00;;;;2079381;28;20611;-52
2022/09/23 04:10:31;;;;;;;2.60;2.27;;;;;20.10;100605.00;;;;2073720;28;20214;-52
2022/09/23 04:11:31;;;;;;;2.10;1.70;;;;;20.10;100595.00;;;;2073265;28;20459;-52
2022/09/23 04:12:31;;;;;;;2.00;1.80;;;;;20.10;100593.00;;;;2078659;28;20242;-52
2022/09/23 04:13:32;;;;;;;2.67;1.80;;;;;20.10;100597.00;;;;2078366;28;20217;-52
2022/09/23 04:14:33;;;;;;;1.85;1.63;;;;;20.10;100593.00;;;;2070338;28;20689;-52
2022/09/23 04:15:33;;;;;;;2.23;2.03;;;;;20.10;100590.00;;;;2070320;28;20226;-52
2022/09/23 04:16:33;;;;;;;1.90;1.63;;;;;20.10;100593.00;;;;2071193;28;20222;-52
2022/09/23 04:17:34;;;;;;;1.63;1.40;;;;;20.10;100612.00;;;;2070142;28;20288;-53
2022/09/23 04:18:34;;;;;;;1.60;1.40;;;;;20.10;100588.00;;;;2070796;28;20828;-52
2022/09/23 04:19:35;;;;;;;1.57;1.47;;;;;20.10;100586.00;;;;2070656;28;20229;-52
2022/09/23 04:20:35;;;;;;;2.03;1.80;;;;;20.10;100586.00;;;;2071037;28;20222;-52
2022/09/23 04:21:35;;;;;;;1.80;1.70;;;;;20.10;100589.00;;;;2062350;28;20839;-52
2022/09/23 04:22:37;;;;;;;2.77;2.00;;;;;20.10;100588.00;;;;2062426;28;20296;-52
2022/09/23 04:23:37;;;;;;;1.70;1.60;;;;;20.10;100586.00;;;;2070985;28;20237;-52
2022/09/23 04:24:38;;;;;;;1.90;1.57;;;;;20.10;100579.00;;;;2070557;28;20566;-52
2022/09/23 04:25:48;;;;;;;1.80;1.70;;;;;20.10;100589.00;;;;2071133;28;20605;-52
2022/09/23 04:26:55;;;;;;;1.80;1.70;;;;;20.10;100583.00;;;;2070988;28;20218;-53
2022/09/23 04:27:56;;;;;;;1.83;1.40;;;;;20.10;100582.00;;;;2069969;28;20313;-52
2022/09/23 04:28:57;;;;;;;2.13;1.90;;;;;20.10;100583.00;;;;2071062;28;20233;-52
2022/09/23 04:29:57;;;;;;;2.20;1.70;;;;;20.10;100576.00;;;;2070882;28;20456;-52
2022/09/23 04:30:57;;;;;;;1.83;1.40;;;;;20.10;100576.00;;;;2071162;28;20457;-52
2022/09/23 04:31:58;;;;;;;1.67;1.20;;;;;20.10;100578.00;;;;2070808;28;20217;-52
2022/09/23 04:32:58;;;;;;;2.20;1.70;;;;;20.10;100571.00;;;;2070711;28;20327;-52
2022/09/23 04:33:59;;;;;;;1.80;1.70;;;;;20.10;100578.00;;;;2070705;28;20222;-52
2022/09/23 04:34:59;;;;;;;2.30;1.63;;;;;20.10;100577.00;;;;2070846;28;20221;-52
2022/09/23 04:35:59;;;;;;;1.70;1.40;;;;;20.10;100571.00;;;;2070806;28;20230;-52
2022/09/23 04:37:00;;;;;;;1.70;1.50;;;;;20.00;100568.00;;;;2070790;28;20218;-52
2022/09/23 04:38:00;;;;;;;3.87;2.30;;;;;20.10;100569.00;;;;2077574;28;20247;-52
2022/09/23 04:39:00;;;;;;;1.43;1.33;;;;;20.10;100563.00;;;;2078985;28;20206;-52
2022/09/23 04:40:02;;;;;;;1.60;1.50;;;;;20.10;100570.00;;;;2079006;28;20212;-52
2022/09/23 04:41:02;;;;;;;2.10;1.90;;;;;20.10;100570.00;;;;2078996;28;20214;-52
2022/09/23 04:42:03;;;;;;;1.63;1.43;;;;;20.10;100566.00;;;;2079053;28;20328;-52
2022/09/23 04:43:03;;;;;;;1.50;1.37;;;;;20.00;100569.00;;;;2078948;28;20220;-52
2022/09/23 04:44:03;;;;;;;1.50;1.40;;;;;20.00;100564.00;;;;2078864;28;20221;-52
2022/09/23 04:45:04;;;;;;;2.63;1.50;;;;;20.10;100569.00;;;;2074404;28;20746;-52
2022/09/23 04:46:06;;;;;;;1.80;1.40;;;;;20.00;100563.00;;;;2070246;28;20809;-52
2022/09/23 04:47:06;;;;;;;1.80;1.45;;;;;20.00;100563.00;;;;2070122;28;20241;-52
2022/09/23 04:48:08;;;;;;;1.90;1.50;;;;;20.10;100555.00;;;;2076648;28;20209;-52
2022/09/23 04:49:08;;;;;;;1.95;1.50;;;;;20.10;100563.00;;;;2079103;28;20643;-52
2022/09/23 04:50:09;;;;;;;1.70;1.50;;;;;20.10;100561.00;;;;2078798;28;20304;-52
2022/09/23 04:51:14;;;;;;;1.53;1.40;;;;;20.00;100555.00;;;;2078924;28;20228;-52
2022/09/23 04:52:15;;;;;;;1.80;1.50;;;;;20.10;100550.00;;;;2078885;28;20585;-52
2022/09/23 04:53:15;;;;;;;1.50;1.40;;;;;20.10;100555.00;;;;2078518;28;20229;-55
2022/09/23 04:54:16;;;;;;;1.43;1.10;;;;;20.10;100553.00;;;;2078917;28;20455;-54
2022/09/23 04:55:17;;;;;;;1.97;1.50;;;;;20.00;100550.00;;;;2078856;28;20280;-54
2022/09/23 04:56:27;;;;;;;1.70;1.37;;;;;20.10;100553.00;;;;2078605;28;20217;-53
2022/09/23 04:57:28;;;;;;;2.60;1.70;;;;;20.10;100550.00;;;;2074083;28;20453;-52
2022/09/23 04:58:29;;;;;;;2.20;1.83;;;;;20.00;100553.00;;;;2070521;28;20206;-52
2022/09/23 04:59:29;;;;;;;1.67;1.20;;;;;20.00;100557.00;;;;2079099;28;20692;-52
2022/09/23 05:00:29;;;;;;;2.27;1.20;;;;;20.00;100548.00;;;;2078781;28;20702;-53
2022/09/23 05:01:30;;;;;;;2.37;1.60;;;;;20.00;100551.00;;;;2078802;28;20851;-52
2022/09/23 05:02:31;;;;;;;1.58;1.40;;;;;20.00;100551.00;;;;2078919;28;20210;-52
2022/09/23 05:03:34;;;;;;;2.13;1.40;;;;;20.00;100552.00;;;;2078730;28;20205;-52
2022/09/23 05:04:35;;;;;;;1.40;1.30;;;;;20.00;100549.00;;;;2078922;28;20208;-52
2022/09/23 05:05:36;;;;;;;2.33;1.45;;;;;20.00;100546.00;;;;2079284;28;20260;-52
2022/09/23 05:06:36;;;;;;;2.30;1.50;;;;;20.00;100550.00;;;;2080438;28;20210;-52
2022/09/23 05:07:36;;;;;;;2.03;1.60;;;;;20.00;100549.00;;;;2079364;28;20395;-52
2022/09/23 05:08:37;;;;;;;1.80;1.30;;;;;20.00;100559.00;;;;2080265;28;20221;-52
2022/09/23 05:09:37;;;;;;;2.03;1.50;;;;;20.00;100554.00;;;;2079922;28;20225;-52
2022/09/23 05:10:37;;;;;;;1.40;1.30;;;;;20.00;100549.00;;;;2080080;28;20371;-52
2022/09/23 05:11:38;;;;;;;2.40;1.60;;;;;20.00;100554.00;;;;2080320;28;20221;-52
2022/09/23 05:12:38;;;;;;;1.87;1.50;;;;;20.00;100554.00;;;;2080637;28;20252;-52
2022/09/23 05:13:38;;;;;;;2.43;1.40;;;;;20.00;100548.00;;;;2080149;28;20260;-52
2022/09/23 05:14:39;;;;;;;1.90;1.60;;;;;20.00;100557.00;;;;2080540;28;20213;-52
2022/09/23 05:15:39;;;;;;;1.83;1.37;;;;;20.00;100547.00;;;;2080597;28;20213;-52
2022/09/23 05:16:39;;;;;;;1.43;1.30;;;;;20.00;100555.00;;;;2080697;28;20225;-52
2022/09/23 05:17:41;;;;;;;1.50;1.40;;;;;20.00;100561.00;;;;2079485;28;20279;-52
2022/09/23 05:18:42;;;;;;;4.28;1.67;;;;;20.00;100557.00;;;;2073375;28;20219;-52
2022/09/23 05:19:43;;;;;;;1.45;1.23;;;;;20.00;100558.00;;;;2076532;28;20205;-52
2022/09/23 05:20:43;;;;;;;1.40;1.30;;;;;20.00;100560.00;;;;2080348;28;20298;-52
2022/09/23 05:21:43;;;;;;;1.50;1.40;;;;;20.00;100586.00;;;;2080570;28;20799;-52
2022/09/23 05:22:44;;;;;;;2.10;1.37;;;;;20.00;100562.00;;;;2080428;28;20691;-52
2022/09/23 05:23:53;;;;;;;4.13;1.50;;;;;20.00;100564.00;;;;2079828;28;20210;-52